createdAt,value
2023-03-16T00:04:19.323Z,12.90
2023-03-16T00:09:31.329Z,15.60
2023-03-16T00:14:35.979Z,13.50
2023-03-16T00:19:39.289Z,15.70
2023-03-16T00:24:46.742Z,14.00
2023-03-16T00:29:56.369Z,13.30
2023-03-16T00:35:02.345Z,11.90
2023-03-16T00:40:08.291Z,11.40
2023-03-16T00:45:12.125Z,9.70
2023-03-16T00:50:16.049Z,10.10
2023-03-16T00:55:20.132Z,9.60
2023-03-16T01:00:27.656Z,9.00
2023-03-16T01:05:33.760Z,9.60
2023-03-16T01:10:37.794Z,8.40
2023-03-16T01:15:41.106Z,10.70
2023-03-16T01:20:51.382Z,13.30
2023-03-16T01:25:54.682Z,9.50
2023-03-16T01:31:07.496Z,7.10
2023-03-16T01:36:14.597Z,9.70
2023-03-16T01:41:17.823Z,12.70
2023-03-16T01:46:25.130Z,8.20
2023-03-16T01:51:34.277Z,9.00
2023-03-16T01:56:52.128Z,8.80
2023-03-16T02:01:56.879Z,8.60
2023-03-16T02:07:00.800Z,8.30
2023-03-16T02:12:04.517Z,11.00
2023-03-16T02:17:07.932Z,8.30
2023-03-16T02:22:11.755Z,9.30
2023-03-16T02:27:28.580Z,9.20
2023-03-16T02:32:33.712Z,9.00
2023-03-16T02:37:37.149Z,7.80
2023-03-16T02:42:41.074Z,8.20
2023-03-16T02:47:45.887Z,8.60
2023-03-16T02:52:49.227Z,8.60
2023-03-16T02:57:52.791Z,8.90
2023-03-16T03:02:56.293Z,12.30
2023-03-16T03:07:59.783Z,11.10
2023-03-16T03:13:03.293Z,8.80
2023-03-16T03:18:07.432Z,8.50
2023-03-16T03:23:11.145Z,7.50
2023-03-16T03:28:15.068Z,15.20
2023-03-16T03:33:19.507Z,8.30
2023-03-16T03:38:23.808Z,8.80
2023-03-16T03:48:30.871Z,8.50
2023-03-16T03:53:34.188Z,8.00
2023-03-16T03:58:37.694Z,7.80
2023-03-16T04:03:41.975Z,9.20
2023-03-16T04:08:46.468Z,9.00
2023-03-16T04:13:53.640Z,8.00
2023-03-16T04:18:57.798Z,8.20
2023-03-16T04:29:05.345Z,9.40
2023-03-16T04:34:09.886Z,8.50
2023-03-16T04:39:13.296Z,9.60
2023-03-16T04:44:16.816Z,5.90
2023-03-16T04:49:20.532Z,6.90
2023-03-16T04:54:23.847Z,10.20
2023-03-16T04:59:28.384Z,9.60
2023-03-16T05:04:31.649Z,9.50
2023-03-16T05:09:35.211Z,8.50
2023-03-16T05:14:38.728Z,8.20
2023-03-16T05:19:42.594Z,9.50
2023-03-16T05:24:45.968Z,10.10
2023-03-16T05:29:49.377Z,9.20
2023-03-16T05:34:53.432Z,7.80
2023-03-16T05:39:57.980Z,9.10
2023-03-16T05:45:01.969Z,7.80
2023-03-16T05:50:09.203Z,8.10
2023-03-16T05:55:14.887Z,8.80
2023-03-16T06:00:20.066Z,9.00
2023-03-16T06:05:24.737Z,8.90
2023-03-16T06:10:28.336Z,7.60
2023-03-16T06:15:32.184Z,8.50
2023-03-16T06:20:35.907Z,7.80
2023-03-16T06:25:40.828Z,6.30
2023-03-16T06:30:44.364Z,8.50
2023-03-16T06:35:48.630Z,11.10
2023-03-16T06:40:53.448Z,9.90
2023-03-16T06:45:56.811Z,10.30
2023-03-16T06:51:00.269Z,8.40
2023-03-16T06:56:03.999Z,12.50
2023-03-16T07:01:07.456Z,11.10
2023-03-16T07:06:11.328Z,8.20
2023-03-16T07:11:15.353Z,11.20
2023-03-16T07:16:18.819Z,9.00
2023-03-16T07:21:22.901Z,9.50
2023-03-16T07:26:26.307Z,9.10
2023-03-16T07:31:29.943Z,9.50
2023-03-16T07:36:33.545Z,9.90
2023-03-16T07:41:36.960Z,9.20
2023-03-16T07:46:40.265Z,10.50
2023-03-16T07:51:43.487Z,9.90
2023-03-16T07:56:49.582Z,10.60
2023-03-16T08:01:53.576Z,9.20
2023-03-16T08:07:00.564Z,7.80
2023-03-16T08:12:05.988Z,8.70
2023-03-16T08:17:09.451Z,8.30
2023-03-16T08:22:12.868Z,8.60
2023-03-16T08:27:16.484Z,10.80
2023-03-16T08:32:20.611Z,7.20
2023-03-16T08:37:24.434Z,10.40
2023-03-16T08:42:29.211Z,11.10
2023-03-16T08:47:33.104Z,10.90
2023-03-16T08:52:41.158Z,11.40
2023-03-16T08:57:45.973Z,10.80
2023-03-16T09:02:49.895Z,9.70
2023-03-16T09:07:54.385Z,11.10
2023-03-16T09:12:57.950Z,11.90
2023-03-16T09:18:04.031Z,10.30
2023-03-16T09:23:07.342Z,11.10
2023-03-16T09:28:11.591Z,10.20
2023-03-16T09:33:14.775Z,9.80
2023-03-16T09:38:19.638Z,9.40
2023-03-16T09:43:44.852Z,9.30
2023-03-16T09:48:48.620Z,10.60
2023-03-16T09:53:56.875Z,12.00
2023-03-16T09:59:00.822Z,11.00
2023-03-16T10:04:22.736Z,7.70
2023-03-16T10:09:43.386Z,10.10
2023-03-16T10:14:55.631Z,11.20
2023-03-16T10:20:21.052Z,9.60
2023-03-16T10:25:46.682Z,11.70
2023-03-16T10:30:53.414Z,9.80
2023-03-16T10:36:33.750Z,9.60
2023-03-16T10:41:40.562Z,10.70
2023-03-16T10:46:59.661Z,9.00
2023-03-16T10:52:20.914Z,7.80
2023-03-16T10:57:30.094Z,7.40
2023-03-16T11:02:35.574Z,10.60
2023-03-16T11:07:39.596Z,6.50
2023-03-16T11:12:48.857Z,8.30
2023-03-16T11:17:56.084Z,9.10
2023-03-16T11:23:01.809Z,7.10
2023-03-16T11:28:13.830Z,8.80
2023-03-16T11:33:17.133Z,5.80
2023-03-16T11:38:36.555Z,6.00
2023-03-16T11:43:49.563Z,5.60
2023-03-16T11:49:17.967Z,11.00
2023-03-16T11:54:33.251Z,6.90
2023-03-16T12:00:01.111Z,6.80
2023-03-16T12:05:27.549Z,13.00
2023-03-16T12:10:44.001Z,7.10
2023-03-16T12:15:55.011Z,8.20
2023-03-16T12:21:04.351Z,8.00
2023-03-16T12:26:09.222Z,9.60
2023-03-16T12:31:38.953Z,5.10
2023-03-16T12:37:14.683Z,4.60
2023-03-16T12:42:41.858Z,5.20
2023-03-16T12:48:06.571Z,4.60
2023-03-16T12:53:40.402Z,4.60
2023-03-16T12:58:49.450Z,5.10
2023-03-16T13:04:01.675Z,5.60
2023-03-16T13:09:07.443Z,8.40
2023-03-16T13:14:17.209Z,6.90
2023-03-16T13:19:28.800Z,6.70
2023-03-16T13:24:41.210Z,4.60
2023-03-16T13:29:54.582Z,4.80
2023-03-16T13:35:00.861Z,5.90
2023-03-16T13:40:05.410Z,5.70
2023-03-16T13:45:15.471Z,4.30
2023-03-16T13:50:19.999Z,4.60
2023-03-16T13:55:32.120Z,5.00
2023-03-16T14:00:37.541Z,6.70
2023-03-16T14:05:41.197Z,5.10
2023-03-16T14:10:45.575Z,6.90
2023-03-16T14:15:49.050Z,5.90
2023-03-16T14:20:56.973Z,5.00
2023-03-16T14:26:00.283Z,4.30
2023-03-16T14:31:12.923Z,5.70
2023-03-16T14:36:18.884Z,4.50
2023-03-16T14:41:26.724Z,3.30
2023-03-16T14:46:33.425Z,4.20
2023-03-16T14:51:40.005Z,3.00
2023-03-16T14:56:48.717Z,6.60
2023-03-16T15:01:54.771Z,4.20
2023-03-16T15:06:59.090Z,3.90
2023-03-16T15:12:02.542Z,4.40
2023-03-16T15:17:05.848Z,2.20
2023-03-16T15:22:12.987Z,3.50
2023-03-16T15:27:21.786Z,5.20
2023-03-16T15:32:25.043Z,5.50
2023-03-16T15:42:33.666Z,3.60
2023-03-16T15:52:42.266Z,2.10
2023-03-16T15:57:45.849Z,4.40
2023-03-16T16:02:49.154Z,5.30
2023-03-16T16:07:53.692Z,4.50
2023-03-16T16:12:57.513Z,7.60
2023-03-16T16:18:20.410Z,2.20
2023-03-16T16:23:25.999Z,2.20
2023-03-16T16:33:35.969Z,5.40
2023-03-16T16:38:39.158Z,3.10
2023-03-16T16:43:47.285Z,2.60
2023-03-16T16:48:53.770Z,4.80
2023-03-16T16:53:59.428Z,3.60
2023-03-16T16:59:14.722Z,5.80
2023-03-16T17:04:23.487Z,2.90
2023-03-16T17:09:29.540Z,3.70
2023-03-16T17:14:33.258Z,5.60
2023-03-16T17:19:36.576Z,3.20
2023-03-16T17:24:40.500Z,3.90
2023-03-16T17:29:43.806Z,2.60
2023-03-16T17:34:47.114Z,4.30
2023-03-16T17:39:51.554Z,5.00
2023-03-16T17:49:58.281Z,9.90
2023-03-16T17:55:03.252Z,12.90
2023-03-16T18:00:30.202Z,13.50
2023-03-16T18:05:38.347Z,10.00
2023-03-16T18:10:43.119Z,7.80
2023-03-16T18:15:47.445Z,9.70
2023-03-16T18:20:52.364Z,10.20
2023-03-16T18:26:01.284Z,19.80
2023-03-16T18:31:05.987Z,22.30
2023-03-16T18:36:32.485Z,12.10
2023-03-16T18:41:36.332Z,27.00
2023-03-16T18:46:39.649Z,8.50
2023-03-16T18:51:45.921Z,24.00
2023-03-16T18:56:49.930Z,11.20
2023-03-16T19:01:54.085Z,11.70
2023-03-16T19:06:58.092Z,10.30
2023-03-16T19:12:03.725Z,10.30
2023-03-16T19:17:07.078Z,14.50
2023-03-16T19:22:19.276Z,7.20
2023-03-16T19:27:31.904Z,7.70
2023-03-16T19:32:36.282Z,18.40
2023-03-16T19:37:39.652Z,18.80
2023-03-16T19:42:43.768Z,18.90
2023-03-16T19:47:47.210Z,9.80
2023-03-16T19:52:51.535Z,7.10
2023-03-16T19:58:01.593Z,7.70
2023-03-16T20:03:04.930Z,7.90
2023-03-16T20:08:20.621Z,4.60
2023-03-16T20:13:24.744Z,13.50
2023-03-16T20:18:29.701Z,14.50
2023-03-16T20:23:33.663Z,15.30
2023-03-16T20:28:38.471Z,13.40
2023-03-16T20:33:41.690Z,12.50
2023-03-16T20:38:45.598Z,11.10
2023-03-16T20:43:48.815Z,8.10
2023-03-16T20:48:52.320Z,13.70
2023-03-16T20:53:55.736Z,6.70
2023-03-16T20:58:59.326Z,11.60
2023-03-16T21:04:03.619Z,12.60
2023-03-16T21:09:07.001Z,10.80
2023-03-16T21:14:24.336Z,12.40
2023-03-16T21:19:28.467Z,38.50
2023-03-16T21:24:32.707Z,24.60
2023-03-16T21:34:40.148Z,13.50
2023-03-16T21:39:43.354Z,15.10
2023-03-16T21:44:46.679Z,14.80
2023-03-16T21:49:50.531Z,15.10
2023-03-16T21:54:55.862Z,15.60
2023-03-16T21:59:59.045Z,13.50
2023-03-16T22:05:02.765Z,16.50
2023-03-16T22:10:17.887Z,16.40
2023-03-16T22:15:26.388Z,11.70
2023-03-16T22:20:29.999Z,11.00
2023-03-16T22:25:33.210Z,17.40
2023-03-16T22:30:37.138Z,18.20
2023-03-16T22:35:40.467Z,20.50
2023-03-16T22:40:44.169Z,23.20
2023-03-16T22:45:48.952Z,28.40
2023-03-16T22:50:53.764Z,38.20
2023-03-16T22:55:57.484Z,32.60
2023-03-16T23:01:07.147Z,30.90
2023-03-16T23:06:17.736Z,32.60
2023-03-16T23:11:28.441Z,27.50
2023-03-16T23:16:36.933Z,25.90
2023-03-16T23:21:40.468Z,26.50
2023-03-16T23:26:45.021Z,32.40
2023-03-16T23:31:48.531Z,35.00
2023-03-16T23:36:52.876Z,43.00
2023-03-16T23:41:56.690Z,38.90
2023-03-16T23:47:00.927Z,33.40
2023-03-16T23:57:09.584Z,33.70
